Time;durP1;ratioP1;P1;durP2;ratioP2;P2;SDS_P1;SDS_P2;PMS_P1;PMS_P2;Temp;Humidity;BMP_temperature;BMP_pressure;BME280_temperature;BME280_humidity;BME280_pressure;Samples;Min_cycle;Max_cycle;Signal;HPM_P1;HPM_P2
2023/06/04 00:01:50;;;;;;;1.30;1.20;;;17.20;42.90;;;;;;956420;150;27269;-74
2023/06/04 00:04:16;;;;;;;2.87;1.15;;;17.20;43.10;;;;;;957005;150;27452;-74
2023/06/04 00:06:43;;;;;;;2.07;1.20;;;17.10;43.30;;;;;;936876;152;27404;-74
2023/06/04 00:09:10;;;;;;;5.33;1.20;;;17.00;43.40;;;;;;937962;150;27490;-74
2023/06/04 00:11:36;;;;;;;1.20;1.10;;;16.90;43.60;;;;;;939264;150;27267;-74
2023/06/04 00:14:03;;;;;;;2.93;1.30;;;16.80;43.80;;;;;;965341;145;27429;-74
2023/06/04 00:16:29;;;;;;;1.40;1.30;;;16.70;43.90;;;;;;965394;148;27342;-74
2023/06/04 00:18:56;;;;;;;2.47;1.33;;;16.60;44.00;;;;;;965481;148;27288;-74
2023/06/04 00:21:23;;;;;;;1.40;1.30;;;16.60;44.20;;;;;;965057;145;27412;-74
2023/06/04 00:23:49;;;;;;;3.02;1.40;;;16.50;44.30;;;;;;965403;148;27286;-74
2023/06/04 00:26:16;;;;;;;1.37;1.27;;;16.40;44.40;;;;;;965113;148;27318;-74
2023/06/04 00:28:42;;;;;;;2.20;1.50;;;16.40;44.50;;;;;;965541;148;27401;-74
2023/06/04 00:31:10;;;;;;;2.13;1.30;;;16.30;44.60;;;;;;965224;148;27384;-74
2023/06/04 00:33:36;;;;;;;1.37;1.30;;;16.20;44.70;;;;;;964770;145;27480;-74
2023/06/04 00:36:02;;;;;;;1.30;1.20;;;16.20;44.80;;;;;;965423;145;27434;-74
2023/06/04 00:38:29;;;;;;;1.67;1.40;;;16.10;44.90;;;;;;965574;148;27268;-74
2023/06/04 00:40:55;;;;;;;1.57;1.30;;;16.10;45.00;;;;;;965308;148;27334;-74
2023/06/04 00:43:25;;;;;;;1.37;1.07;;;16.00;45.20;;;;;;964710;148;27347;-74
2023/06/04 00:45:48;;;;;;;1.77;1.30;;;16.00;45.20;;;;;;965396;145;27440;-74
2023/06/04 00:48:15;;;;;;;1.73;1.37;;;15.90;45.20;;;;;;964330;145;27276;-73
2023/06/04 00:50:42;;;;;;;1.37;1.23;;;15.80;45.20;;;;;;963899;146;27353;-74
2023/06/04 00:53:08;;;;;;;2.17;1.30;;;15.80;45.30;;;;;;951468;147;27351;-74
2023/06/04 00:55:35;;;;;;;2.40;1.30;;;15.80;45.40;;;;;;926821;150;27369;-74
2023/06/04 00:58:03;;;;;;;1.30;1.20;;;15.70;45.50;;;;;;951393;147;27271;-74
2023/06/04 01:00:28;;;;;;;1.23;1.13;;;15.70;45.70;;;;;;948137;147;27299;-74
2023/06/04 01:02:55;;;;;;;1.10;1.10;;;15.60;45.60;;;;;;943411;149;27365;-74
2023/06/04 01:05:28;;;;;;;3.17;1.37;;;15.60;45.80;;;;;;943406;149;27347;-74
2023/06/04 01:07:53;;;;;;;2.13;1.27;;;15.50;45.70;;;;;;942217;149;27403;-74
2023/06/04 01:10:22;;;;;;;1.73;1.27;;;15.50;45.80;;;;;;951524;147;27361;-74
2023/06/04 01:12:47;;;;;;;1.37;1.27;;;15.50;45.90;;;;;;935315;149;27356;-74
2023/06/04 01:15:13;;;;;;;4.50;1.20;;;15.40;45.90;;;;;;927108;151;27429;-74
2023/06/04 01:17:40;;;;;;;2.50;1.27;;;15.40;46.00;;;;;;937265;149;27267;-74
2023/06/04 01:20:40;;;;;;;2.57;1.60;;;15.40;46.00;;;;;;932562;149;27297;-74
2023/06/04 01:23:23;;;;;;;1.30;1.20;;;15.40;46.10;;;;;;927597;149;27711;-74
2023/06/04 01:25:49;;;;;;;1.53;1.20;;;15.30;46.00;;;;;;924351;149;27383;-75
2023/06/04 01:28:15;;;;;;;1.93;1.30;;;15.30;46.10;;;;;;948644;147;27332;-74
2023/06/04 01:30:45;;;;;;;2.07;1.10;;;15.20;46.20;;;;;;943108;149;27344;-74
2023/06/04 01:33:10;;;;;;;3.00;1.40;;;15.20;46.30;;;;;;942435;149;27301;-74
2023/06/04 01:35:37;;;;;;;2.05;1.10;;;15.20;46.40;;;;;;925389;150;27330;-74
2023/06/04 01:38:04;;;;;;;1.63;1.30;;;15.20;46.50;;;;;;927863;151;27389;-74
2023/06/04 01:40:30;;;;;;;2.97;1.27;;;15.20;46.60;;;;;;935796;150;27465;-74
2023/06/04 01:42:57;;;;;;;1.00;1.00;;;15.10;46.50;;;;;;927633;150;27311;-74
2023/06/04 01:45:23;;;;;;;1.60;1.10;;;15.10;46.60;;;;;;935525;149;27322;-74
2023/06/04 01:47:50;;;;;;;2.10;1.33;;;15.10;46.70;;;;;;925560;150;27336;-74
2023/06/04 01:50:17;;;;;;;1.50;1.40;;;15.00;46.70;;;;;;929968;150;27444;-74
2023/06/04 01:52:43;;;;;;;1.80;1.20;;;15.00;46.80;;;;;;940416;150;27321;-74
2023/06/04 01:55:11;;;;;;;1.23;1.00;;;15.00;46.90;;;;;;940646;150;27341;-74
2023/06/04 01:57:36;;;;;;;2.97;1.50;;;14.90;47.50;;;;;;940845;149;27417;-74
2023/06/04 02:00:04;;;;;;;1.27;1.00;;;14.80;47.00;;;;;;938181;151;27368;-74
2023/06/04 02:02:30;;;;;;;1.60;1.40;;;14.70;47.00;;;;;;940398;149;27310;-74
2023/06/04 02:04:56;;;;;;;1.80;1.30;;;14.70;47.10;;;;;;936454;151;27361;-74
2023/06/04 02:07:23;;;;;;;2.67;1.27;;;14.70;47.20;;;;;;918204;152;27382;-74
2023/06/04 02:09:49;;;;;;;1.30;1.20;;;14.60;47.40;;;;;;924805;151;27407;-74
2023/06/04 02:12:16;;;;;;;1.57;1.37;;;14.60;47.40;;;;;;933575;149;27371;-74
2023/06/04 02:14:44;;;;;;;2.03;1.40;;;14.50;47.50;;;;;;924591;152;27367;-74
2023/06/04 02:17:12;;;;;;;2.97;1.60;;;14.50;47.60;;;;;;941982;149;27374;-74
2023/06/04 02:19:36;;;;;;;1.77;1.20;;;14.40;47.60;;;;;;936862;151;27334;-74
2023/06/04 02:22:02;;;;;;;2.00;1.30;;;14.40;47.80;;;;;;954593;148;27380;-74
2023/06/04 02:24:29;;;;;;;1.63;1.50;;;14.30;47.90;;;;;;955328;148;27491;-74
2023/06/04 02:26:55;;;;;;;2.33;1.30;;;14.30;47.90;;;;;;954033;148;27293;-74
2023/06/04 02:29:22;;;;;;;2.67;1.40;;;14.20;48.00;;;;;;917609;152;27959;-74
2023/06/04 02:31:49;;;;;;;1.50;1.30;;;14.20;48.10;;;;;;938834;150;27400;-74
2023/06/04 02:34:15;;;;;;;1.90;1.30;;;14.20;48.30;;;;;;935714;150;27432;-74
2023/06/04 02:36:50;;;;;;;1.63;1.37;;;14.10;48.30;;;;;;918442;152;27393;-74
2023/06/04 02:39:08;;;;;;;3.90;1.50;;;14.10;48.40;;;;;;937393;150;27296;-74
2023/06/04 02:41:35;;;;;;;2.33;1.60;;;14.10;48.40;;;;;;937333;150;27911;-74
2023/06/04 02:44:01;;;;;;;2.63;1.30;;;14.00;48.40;;;;;;938607;149;27350;-74
2023/06/04 02:46:28;;;;;;;1.63;1.30;;;14.00;48.50;;;;;;937003;150;27397;-74
2023/06/04 02:48:55;;;;;;;1.57;1.30;;;14.00;48.70;;;;;;935900;150;27361;-74
2023/06/04 02:51:21;;;;;;;2.27;1.60;;;14.00;48.80;;;;;;923452;149;27357;-74
2023/06/04 02:53:48;;;;;;;1.93;1.60;;;14.00;48.80;;;;;;952277;147;27266;-74
2023/06/04 02:56:15;;;;;;;2.13;1.53;;;14.00;48.90;;;;;;938680;149;27447;-77
2023/06/04 02:58:50;;;;;;;1.53;1.43;;;13.90;48.90;;;;;;927630;150;27355;-74
2023/06/04 03:01:22;;;;;;;2.00;1.47;;;13.90;48.90;;;;;;942909;148;27285;-74
2023/06/04 03:03:49;;;;;;;3.10;1.60;;;13.90;49.00;;;;;;942210;148;27374;-74
2023/06/04 03:06:15;;;;;;;1.20;1.10;;;13.90;49.10;;;;;;943535;149;27463;-74
2023/06/04 03:08:42;;;;;;;1.60;1.50;;;13.80;49.20;;;;;;942911;149;27453;-74
2023/06/04 03:11:09;;;;;;;3.30;1.30;;;13.80;49.30;;;;;;942753;149;27419;-74
2023/06/04 03:13:35;;;;;;;1.37;1.27;;;13.70;49.40;;;;;;942921;148;28053;-74
2023/06/04 03:16:02;;;;;;;2.40;1.30;;;13.70;49.50;;;;;;942995;148;27334;-74
2023/06/04 03:18:28;;;;;;;1.37;1.23;;;13.70;49.60;;;;;;927531;150;27364;-74
2023/06/04 03:20:55;;;;;;;1.33;1.23;;;13.70;49.70;;;;;;928228;150;27372;-74
2023/06/04 03:23:22;;;;;;;1.30;1.20;;;13.60;49.80;;;;;;950877;147;27658;-74
2023/06/04 03:25:48;;;;;;;2.50;1.40;;;13.60;50.00;;;;;;950512;147;27301;-74
2023/06/04 03:28:15;;;;;;;1.43;1.20;;;13.50;50.10;;;;;;951141;147;27315;-74
2023/06/04 03:30:41;;;;;;;1.17;1.03;;;13.50;50.30;;;;;;926995;149;27386;-74
2023/06/04 03:33:08;;;;;;;1.30;1.30;;;13.40;50.30;;;;;;927537;149;27381;-74
2023/06/04 03:35:35;;;;;;;1.30;1.20;;;13.40;50.40;;;;;;935444;149;27336;-75
2023/06/04 03:38:01;;;;;;;4.40;1.30;;;13.40;50.60;;;;;;943117;148;27269;-74
2023/06/04 03:40:28;;;;;;;1.47;1.37;;;13.30;50.60;;;;;;931431;149;27366;-74
2023/06/04 03:42:54;;;;;;;2.53;1.53;;;13.30;50.10;;;;;;932756;149;27381;-74
2023/06/04 03:45:21;;;;;;;2.03;1.20;;;13.20;50.80;;;;;;926836;151;27413;-74
2023/06/04 03:47:47;;;;;;;1.37;1.27;;;13.20;51.10;;;;;;964344;146;27260;-74
2023/06/04 03:50:14;;;;;;;1.90;1.30;;;13.20;51.20;;;;;;963493;146;27328;-74
2023/06/04 03:52:41;;;;;;;3.10;1.30;;;13.20;51.30;;;;;;962955;146;27468;-74
2023/06/04 03:55:07;;;;;;;1.40;1.30;;;13.10;51.30;;;;;;962585;146;27387;-74
2023/06/04 03:57:34;;;;;;;1.27;1.20;;;13.10;51.40;;;;;;964385;146;27304;-74
2023/06/04 04:00:01;;;;;;;1.10;1.10;;;13.10;51.60;;;;;;964385;146;27232;-74
2023/06/04 04:02:27;;;;;;;1.47;1.30;;;13.10;51.70;;;;;;962994;146;27320;-74
2023/06/04 04:04:54;;;;;;;1.27;1.10;;;13.10;51.90;;;;;;963998;146;27330;-74
2023/06/04 04:07:21;;;;;;;1.90;1.07;;;13.10;51.90;;;;;;963502;146;27229;-74
2023/06/04 04:09:47;;;;;;;1.50;1.17;;;13.10;52.00;;;;;;963837;145;27417;-74
2023/06/04 04:12:13;;;;;;;1.97;1.10;;;13.10;52.10;;;;;;964235;145;27327;-74
2023/06/04 04:14:40;;;;;;;1.03;1.03;;;13.20;52.20;;;;;;964096;146;27412;-74
2023/06/04 04:17:07;;;;;;;2.13;1.30;;;13.20;52.20;;;;;;963785;145;27225;-74
2023/06/04 04:19:33;;;;;;;1.90;1.30;;;13.20;52.30;;;;;;964568;146;27326;-74
2023/06/04 04:22:00;;;;;;;1.47;1.37;;;13.20;52.30;;;;;;963174;145;27420;-74
2023/06/04 04:24:26;;;;;;;3.90;1.30;;;13.30;52.40;;;;;;964047;146;27338;-74
2023/06/04 04:26:53;;;;;;;1.47;1.37;;;13.40;52.60;;;;;;963712;146;27424;-74
2023/06/04 04:29:25;;;;;;;3.07;1.40;;;13.40;52.60;;;;;;963912;146;27304;-74
2023/06/04 04:31:51;;;;;;;3.67;1.30;;;13.50;52.70;;;;;;963482;146;27397;-74
2023/06/04 04:34:21;;;;;;;2.27;1.30;;;13.50;53.10;;;;;;964266;146;27727;-74
2023/06/04 04:36:48;;;;;;;1.27;1.17;;;13.60;52.70;;;;;;962701;146;27369;-74
2023/06/04 04:39:11;;;;;;;2.73;1.37;;;13.70;52.70;;;;;;964218;145;27312;-74
2023/06/04 04:41:38;;;;;;;1.53;1.43;;;13.70;52.70;;;;;;962716;146;27225;-74
2023/06/04 04:44:05;;;;;;;1.30;1.20;;;13.90;52.60;;;;;;963460;146;27436;-75
2023/06/04 04:46:31;;;;;;;1.10;1.10;;;13.90;52.50;;;;;;963894;145;27320;-75
2023/06/04 04:48:57;;;;;;;1.33;1.23;;;14.00;52.50;;;;;;963511;145;27236;-75
2023/06/04 04:51:24;;;;;;;2.53;1.20;;;14.10;52.60;;;;;;963792;146;27409;-75
2023/06/04 04:53:50;;;;;;;1.97;1.87;;;14.30;52.60;;;;;;962641;147;27387;-75
2023/06/04 04:56:17;;;;;;;1.77;1.67;;;14.40;52.60;;;;;;957074;150;27411;-75
2023/06/04 04:58:44;;;;;;;1.30;1.20;;;14.70;53.00;;;;;;957405;150;27319;-75
2023/06/04 05:01:10;;;;;;;1.20;1.10;;;15.00;53.50;;;;;;957387;148;27287;-75
2023/06/04 05:03:37;;;;;;;1.50;1.40;;;15.60;54.00;;;;;;957039;147;27328;-75
2023/06/04 05:06:03;;;;;;;1.98;1.17;;;16.20;54.20;;;;;;956818;147;27403;-75
2023/06/04 05:08:30;;;;;;;3.60;1.05;;;16.90;54.10;;;;;;955781;147;27414;-75
2023/06/04 05:10:57;;;;;;;1.92;1.07;;;17.70;53.80;;;;;;956479;147;27490;-75
2023/06/04 05:13:24;;;;;;;1.30;1.12;;;18.60;53.30;;;;;;957144;147;27327;-75
2023/06/04 05:15:52;;;;;;;1.25;1.17;;;19.40;52.50;;;;;;956491;147;27267;-75
2023/06/04 05:18:16;;;;;;;1.17;1.07;;;20.30;51.70;;;;;;939616;150;27416;-75
2023/06/04 05:20:44;;;;;;;1.52;1.10;;;21.10;50.70;;;;;;940676;150;27488;-75
2023/06/04 05:23:12;;;;;;;2.27;1.22;;;22.00;49.80;;;;;;932665;150;27326;-75
2023/06/04 05:25:36;;;;;;;0.93;0.93;;;22.80;49.00;;;;;;937223;150;27280;-75
2023/06/04 05:28:03;;;;;;;1.07;1.07;;;23.60;48.00;;;;;;939920;150;27426;-75
2023/06/04 05:30:31;;;;;;;1.50;1.40;;;24.40;47.00;;;;;;957448;149;27455;-75
2023/06/04 05:32:56;;;;;;;1.22;1.02;;;25.20;46.30;;;;;;956766;150;27303;-75
2023/06/04 05:35:22;;;;;;;2.65;1.02;;;25.90;45.10;;;;;;956506;149;27343;-75
2023/06/04 05:37:53;;;;;;;2.72;1.12;;;26.60;44.30;;;;;;956552;147;27290;-75
2023/06/04 05:40:16;;;;;;;1.45;1.15;;;27.20;43.30;;;;;;956765;147;27330;-75
2023/06/04 05:42:42;;;;;;;1.02;1.02;;;27.80;42.60;;;;;;933071;151;27419;-75
2023/06/04 05:45:09;;;;;;;1.05;1.05;;;28.40;41.90;;;;;;947076;149;27307;-76
2023/06/04 05:47:36;;;;;;;1.20;1.05;;;28.80;40.90;;;;;;946855;149;27314;-75
2023/06/04 05:50:02;;;;;;;1.82;1.10;;;29.30;40.10;;;;;;946739;149;27342;-75
2023/06/04 05:52:29;;;;;;;1.37;1.30;;;29.60;39.30;;;;;;947499;151;27404;-75
2023/06/04 05:54:55;;;;;;;2.55;1.35;;;30.00;38.80;;;;;;942972;149;27948;-75
2023/06/04 05:57:22;;;;;;;1.20;1.10;;;30.30;38.30;;;;;;942733;149;27417;-75
2023/06/04 05:59:48;;;;;;;2.47;1.30;;;30.60;38.00;;;;;;943002;149;27306;-76
2023/06/04 06:02:15;;;;;;;1.77;1.02;;;30.90;37.60;;;;;;962010;146;27289;-75
2023/06/04 06:04:42;;;;;;;1.27;1.17;;;31.30;37.80;;;;;;934618;149;27336;-75
2023/06/04 06:07:08;;;;;;;1.98;1.17;;;31.70;36.70;;;;;;927842;150;27324;-76
2023/06/04 06:09:36;;;;;;;1.45;0.82;;;32.10;36.30;;;;;;942686;149;27464;-76
2023/06/04 06:12:01;;;;;;;0.82;0.82;;;32.50;35.80;;;;;;942870;149;27378;-76
2023/06/04 06:14:28;;;;;;;1.00;1.00;;;32.90;35.40;;;;;;941975;149;27432;-75
2023/06/04 06:16:54;;;;;;;1.17;1.07;;;33.20;34.80;;;;;;942636;149;27366;-76
2023/06/04 06:19:21;;;;;;;1.40;1.30;;;33.60;34.50;;;;;;943234;148;27328;-76
2023/06/04 06:21:48;;;;;;;1.20;1.00;;;34.00;34.20;;;;;;942763;149;27333;-76
2023/06/04 06:24:14;;;;;;;1.30;1.20;;;34.30;33.80;;;;;;942806;149;26285;-76
2023/06/04 06:26:41;;;;;;;0.82;0.82;;;34.70;33.50;;;;;;943010;149;27449;-76
2023/06/04 06:29:07;;;;;;;1.00;1.00;;;35.00;32.90;;;;;;942696;148;26335;-76
2023/06/04 06:31:34;;;;;;;1.10;1.10;;;35.30;32.50;;;;;;941493;149;26281;-76
2023/06/04 06:34:01;;;;;;;2.17;0.98;;;35.50;32.20;;;;;;943171;149;26282;-76
2023/06/04 06:36:28;;;;;;;1.42;1.15;;;35.90;32.00;;;;;;942169;149;26358;-76
2023/06/04 06:38:54;;;;;;;2.25;0.88;;;36.20;31.50;;;;;;942944;149;26367;-77
2023/06/04 06:41:20;;;;;;;1.75;1.35;;;36.50;31.00;;;;;;942597;149;26179;-77
2023/06/04 06:43:47;;;;;;;1.10;1.00;;;36.80;30.80;;;;;;942794;149;26237;-77
2023/06/04 06:46:14;;;;;;;1.45;1.15;;;37.00;30.50;;;;;;943293;149;26366;-77
2023/06/04 06:48:44;;;;;;;1.15;1.07;;;37.30;30.30;;;;;;935654;146;26301;-77
2023/06/04 06:51:07;;;;;;;1.25;1.15;;;37.60;30.10;;;;;;947605;147;26202;-77
2023/06/04 06:53:33;;;;;;;0.78;0.78;;;37.90;29.80;;;;;;950342;147;26216;-77
2023/06/04 06:56:00;;;;;;;1.22;1.12;;;38.10;29.40;;;;;;950558;147;26176;-77
2023/06/04 06:58:26;;;;;;;1.12;1.12;;;38.30;29.10;;;;;;951925;147;26368;-77
2023/06/04 07:00:56;;;;;;;1.07;1.00;;;38.50;28.70;;;;;;951457;147;26243;-77
2023/06/04 07:03:20;;;;;;;1.12;1.10;;;38.70;28.40;;;;;;950328;147;26229;-77
2023/06/04 07:05:46;;;;;;;1.55;1.10;;;38.80;28.30;;;;;;935299;149;26198;-77
2023/06/04 07:08:13;;;;;;;2.80;1.30;;;39.10;28.20;;;;;;927697;150;26292;-77
2023/06/04 07:10:40;;;;;;;0.93;0.93;;;39.20;27.90;;;;;;937188;149;26293;-77
2023/06/04 07:13:06;;;;;;;1.02;0.93;;;39.50;27.80;;;;;;935681;150;26860;-75
2023/06/04 07:15:33;;;;;;;2.08;1.20;;;39.70;27.70;;;;;;935835;149;26206;-74
2023/06/04 07:17:59;;;;;;;2.10;1.05;;;39.90;27.50;;;;;;936263;149;26170;-74
2023/06/04 07:20:26;;;;;;;1.32;0.98;;;40.30;27.30;;;;;;936802;149;26241;-75
2023/06/04 07:22:52;;;;;;;1.20;1.00;;;40.60;27.00;;;;;;936475;150;26265;-76
2023/06/04 07:25:19;;;;;;;0.88;0.88;;;40.90;26.80;;;;;;937324;149;26163;-76
2023/06/04 07:27:46;;;;;;;0.75;0.75;;;41.10;26.60;;;;;;932696;149;26237;-76
2023/06/04 07:30:12;;;;;;;1.20;0.90;;;41.30;26.40;;;;;;926387;151;26232;-76
2023/06/04 07:32:39;;;;;;;1.87;0.90;;;41.50;26.30;;;;;;950761;147;26268;-76
2023/06/04 07:35:05;;;;;;;0.78;0.78;;;41.70;26.20;;;;;;950792;147;26232;-76
2023/06/04 07:37:32;;;;;;;1.25;1.10;;;41.90;26.40;;;;;;930518;149;27504;-77
2023/06/04 07:39:58;;;;;;;1.60;1.00;;;42.20;25.70;;;;;;936944;149;26229;-76
2023/06/04 07:42:25;;;;;;;0.85;0.85;;;42.30;25.50;;;;;;936553;150;26218;-76
2023/06/04 07:44:52;;;;;;;1.37;0.88;;;42.50;25.30;;;;;;936451;150;26265;-77
2023/06/04 07:47:18;;;;;;;1.05;0.90;;;42.60;25.10;;;;;;950172;146;26227;-77
2023/06/04 07:49:45;;;;;;;3.90;1.00;;;42.70;24.80;;;;;;950765;147;26311;-77
2023/06/04 07:52:11;;;;;;;1.65;1.10;;;42.80;24.30;;;;;;950536;147;26236;-77
2023/06/04 07:54:41;;;;;;;0.65;0.65;;;42.90;25.00;;;;;;951511;147;26266;-77
2023/06/04 07:57:05;;;;;;;0.82;0.80;;;43.00;24.60;;;;;;950149;147;26341;-77
2023/06/04 07:59:31;;;;;;;1.05;0.90;;;43.00;24.20;;;;;;950456;147;26200;-77
2023/06/04 08:01:58;;;;;;;1.12;0.90;;;43.20;23.90;;;;;;928982;149;26228;-77
2023/06/04 08:04:24;;;;;;;0.80;0.80;;;43.30;24.10;;;;;;944463;148;26312;-77
2023/06/04 08:06:51;;;;;;;0.82;0.80;;;43.40;24.10;;;;;;936308;148;26250;-77
2023/06/04 08:09:18;;;;;;;0.90;0.88;;;43.50;24.00;;;;;;926880;150;26275;-77
2023/06/04 08:11:44;;;;;;;1.40;1.20;;;43.70;23.70;;;;;;943245;148;26250;-77
2023/06/04 08:14:12;;;;;;;1.40;0.98;;;43.80;23.40;;;;;;942824;149;26572;-77
2023/06/04 08:16:37;;;;;;;1.35;0.82;;;43.90;23.30;;;;;;942953;148;26686;-77
2023/06/04 08:19:04;;;;;;;1.40;1.05;;;44.10;23.30;;;;;;942405;148;26286;-77
2023/06/04 08:21:31;;;;;;;0.98;0.72;;;44.30;23.00;;;;;;941645;148;26255;-77
2023/06/04 08:23:58;;;;;;;1.02;1.00;;;44.40;22.90;;;;;;942888;149;26228;-77
2023/06/04 08:26:24;;;;;;;1.50;1.02;;;44.50;22.70;;;;;;941913;149;26324;-77
2023/06/04 08:28:50;;;;;;;0.78;0.78;;;44.60;22.60;;;;;;943228;148;26312;-77
2023/06/04 08:31:17;;;;;;;0.98;0.88;;;44.70;22.60;;;;;;942089;148;26273;-77
2023/06/04 08:33:46;;;;;;;0.78;0.72;;;44.70;22.50;;;;;;942298;149;26244;-77
2023/06/04 08:36:13;;;;;;;1.90;0.90;;;44.90;22.30;;;;;;942570;149;26578;-77
2023/06/04 08:38:39;;;;;;;0.80;0.80;;;45.00;22.20;;;;;;942849;149;26359;-77
2023/06/04 08:41:26;;;;;;;0.82;0.82;;;45.20;22.10;;;;;;941743;148;26697;-77
2023/06/04 08:43:50;;;;;;;1.50;0.80;;;45.20;22.00;;;;;;941812;149;26253;-77
2023/06/04 08:46:17;;;;;;;1.67;0.72;;;45.40;22.10;;;;;;942066;148;26220;-77
2023/06/04 08:48:47;;;;;;;1.42;0.90;;;45.50;22.10;;;;;;943057;148;26264;-76
2023/06/04 08:51:12;;;;;;;0.98;0.90;;;45.70;22.10;;;;;;961535;146;26210;-77
2023/06/04 08:53:38;;;;;;;1.00;0.90;;;45.90;21.90;;;;;;950952;147;26236;-77
2023/06/04 08:56:05;;;;;;;1.05;0.95;;;46.10;21.60;;;;;;958969;145;26379;-77
2023/06/04 08:58:32;;;;;;;0.72;0.72;;;46.40;21.60;;;;;;966431;145;26284;-77
2023/06/04 09:00:58;;;;;;;2.30;0.90;;;46.70;21.60;;;;;;945240;148;26185;-77
2023/06/04 09:03:25;;;;;;;1.02;0.80;;;46.90;21.20;;;;;;949329;148;26365;-77
2023/06/04 09:05:51;;;;;;;0.75;0.68;;;47.00;21.00;;;;;;963273;146;26280;-77
2023/06/04 09:08:18;;;;;;;0.90;0.90;;;47.00;20.90;;;;;;947209;149;26328;-77
2023/06/04 09:10:49;;;;;;;2.12;1.17;;;47.10;20.80;;;;;;946884;148;26308;-77
2023/06/04 09:13:11;;;;;;;2.25;1.10;;;47.20;20.70;;;;;;965715;145;26230;-77
2023/06/04 09:15:38;;;;;;;0.72;0.72;;;47.30;20.70;;;;;;954950;147;26213;-77
2023/06/04 09:18:04;;;;;;;2.80;0.78;;;47.40;20.50;;;;;;948018;148;26283;-77
2023/06/04 09:20:32;;;;;;;1.50;0.88;;;47.50;20.20;;;;;;963275;148;26285;-77
2023/06/04 09:22:57;;;;;;;1.02;0.88;;;47.60;19.90;;;;;;940371;148;26329;-77
2023/06/04 09:25:26;;;;;;;1.55;1.00;;;47.60;19.70;;;;;;947148;148;26234;-77
2023/06/04 09:27:50;;;;;;;0.80;0.80;;;47.40;19.50;;;;;;954577;147;26255;-77
2023/06/04 09:30:17;;;;;;;1.02;0.98;;;47.20;19.40;;;;;;954479;147;26264;-77
2023/06/04 09:32:44;;;;;;;1.05;1.00;;;46.90;19.40;;;;;;939708;150;26237;-77
2023/06/04 09:35:13;;;;;;;0.80;0.80;;;46.50;19.20;;;;;;963891;146;26175;-77
2023/06/04 09:37:40;;;;;;;1.92;1.20;;;46.20;19.30;;;;;;946226;148;26332;-77
2023/06/04 09:40:06;;;;;;;1.00;0.80;;;45.80;19.30;;;;;;967372;145;26251;-77
2023/06/04 09:42:42;;;;;;;2.58;1.00;;;45.40;19.10;;;;;;945175;148;26372;-77
2023/06/04 09:45:08;;;;;;;1.05;0.85;;;45.10;19.20;;;;;;942262;149;26338;-77
2023/06/04 09:47:41;;;;;;;2.90;1.20;;;44.80;19.40;;;;;;946146;149;26232;-77
2023/06/04 09:50:08;;;;;;;5.75;1.20;;;44.50;19.40;;;;;;963306;146;26346;-78
2023/06/04 09:52:35;;;;;;;1.00;0.72;;;44.10;19.40;;;;;;964107;146;26348;-77
2023/06/04 09:55:01;;;;;;;1.52;1.10;;;43.80;19.30;;;;;;943579;149;26258;-77
2023/06/04 09:57:28;;;;;;;2.47;1.25;;;43.40;19.00;;;;;;966392;148;26252;-77
2023/06/04 09:59:54;;;;;;;0.82;0.70;;;42.90;19.00;;;;;;970325;145;26219;-77
2023/06/04 10:02:21;;;;;;;1.02;0.95;;;42.40;19.20;;;;;;970404;145;26235;-77
2023/06/04 10:04:54;;;;;;;1.32;0.90;;;41.80;19.20;;;;;;970284;145;26239;-77
2023/06/04 10:07:20;;;;;;;1.20;1.10;;;41.20;19.30;;;;;;970364;145;26254;-77
2023/06/04 10:09:46;;;;;;;1.30;1.20;;;40.60;19.50;;;;;;970578;145;26258;-77
2023/06/04 10:12:16;;;;;;;1.80;1.00;;;39.90;19.60;;;;;;970444;145;26268;-77
2023/06/04 10:14:45;;;;;;;1.32;0.98;;;39.40;19.80;;;;;;969834;145;26262;-77
2023/06/04 10:17:12;;;;;;;1.15;1.05;;;38.70;19.90;;;;;;954851;147;26823;-77
2023/06/04 10:19:38;;;;;;;0.95;0.95;;;38.20;20.00;;;;;;957525;147;26312;-77
2023/06/04 10:22:05;;;;;;;1.62;1.52;;;37.70;20.10;;;;;;956009;147;27432;-77
2023/06/04 10:24:31;;;;;;;1.77;1.27;;;37.20;20.40;;;;;;949467;148;27349;-77
2023/06/04 10:26:58;;;;;;;2.40;1.20;;;36.70;20.40;;;;;;970088;145;27287;-77
2023/06/04 10:29:25;;;;;;;3.25;1.27;;;36.20;20.40;;;;;;952107;147;27426;-77
2023/06/04 10:31:54;;;;;;;1.42;1.20;;;35.60;20.40;;;;;;950956;148;27330;-77
2023/06/04 10:34:20;;;;;;;1.10;1.00;;;35.10;20.60;;;;;;954750;150;27330;-76
2023/06/04 10:36:47;;;;;;;1.72;1.32;;;34.60;20.80;;;;;;970833;145;27374;-77
2023/06/04 10:39:14;;;;;;;1.27;1.07;;;34.20;21.00;;;;;;970352;145;27381;-77
2023/06/04 10:41:40;;;;;;;1.35;1.20;;;33.70;21.20;;;;;;970177;145;27303;-77
2023/06/04 10:44:07;;;;;;;1.80;1.45;;;33.30;21.80;;;;;;970251;145;27323;-77
2023/06/04 10:46:40;;;;;;;2.72;1.30;;;33.00;21.90;;;;;;953077;147;27402;-77
2023/06/04 10:49:06;;;;;;;1.20;1.10;;;32.70;21.90;;;;;;965937;148;27443;-76
2023/06/04 10:51:33;;;;;;;1.00;1.00;;;32.40;21.80;;;;;;957427;147;27634;-76
2023/06/04 10:53:59;;;;;;;1.67;1.40;;;32.10;21.90;;;;;;952946;147;27441;-76
2023/06/04 10:56:29;;;;;;;2.02;1.57;;;31.80;22.00;;;;;;964821;148;27368;-77
2023/06/04 10:58:55;;;;;;;1.55;1.37;;;31.50;22.10;;;;;;959915;149;27329;-76
2023/06/04 11:01:31;;;;;;;1.50;1.40;;;31.20;22.30;;;;;;934855;149;27399;-76
2023/06/04 11:03:55;;;;;;;1.30;1.15;;;30.80;22.40;;;;;;947590;147;27331;-76
2023/06/04 11:06:21;;;;;;;1.52;1.02;;;30.50;22.70;;;;;;926214;151;27356;-76
2023/06/04 11:08:48;;;;;;;1.30;1.20;;;30.30;22.70;;;;;;950940;147;27322;-76
2023/06/04 11:11:17;;;;;;;1.47;1.20;;;30.10;22.80;;;;;;950469;147;27262;-76
2023/06/04 11:13:44;;;;;;;1.35;1.25;;;29.90;22.90;;;;;;949224;147;27307;-76
2023/06/04 11:16:19;;;;;;;1.85;0.93;;;29.80;23.20;;;;;;950948;147;27330;-76
2023/06/04 11:18:58;;;;;;;0.90;0.90;;;29.70;23.40;;;;;;947954;147;27442;-76
2023/06/04 11:21:24;;;;;;;1.05;1.05;;;29.60;23.50;;;;;;942700;149;27355;-76
2023/06/04 11:24:00;;;;;;;1.40;1.30;;;29.60;23.50;;;;;;942197;149;27400;-77
2023/06/04 11:26:35;;;;;;;1.20;1.10;;;29.50;23.60;;;;;;941923;149;27448;-76
2023/06/04 11:29:02;;;;;;;1.00;0.98;;;29.50;23.60;;;;;;942703;149;27373;-76
2023/06/04 11:31:28;;;;;;;2.22;1.22;;;29.40;23.60;;;;;;941811;149;27400;-76
2023/06/04 11:33:55;;;;;;;1.90;1.20;;;29.30;23.60;;;;;;943261;149;27335;-76
2023/06/04 11:36:27;;;;;;;1.27;1.17;;;29.20;23.50;;;;;;941858;148;27388;-77
2023/06/04 11:38:57;;;;;;;1.37;0.98;;;29.10;23.40;;;;;;950972;147;27342;-76
2023/06/04 11:41:23;;;;;;;1.10;1.10;;;29.00;23.60;;;;;;950675;147;27326;-77
2023/06/04 11:43:50;;;;;;;0.90;0.90;;;28.90;23.90;;;;;;963328;146;27284;-76
2023/06/04 11:46:16;;;;;;;2.83;1.30;;;28.90;24.00;;;;;;963183;145;27410;-76
2023/06/04 11:48:43;;;;;;;2.17;1.20;;;28.90;24.20;;;;;;964219;143;27313;-77
2023/06/04 11:51:09;;;;;;;2.12;1.27;;;28.90;24.30;;;;;;963619;146;27419;-76
2023/06/04 11:53:36;;;;;;;0.85;0.85;;;28.90;24.30;;;;;;963868;146;27261;-76
2023/06/04 11:56:02;;;;;;;1.07;0.98;;;28.90;24.30;;;;;;963619;146;27650;-76
2023/06/04 11:58:29;;;;;;;1.30;1.10;;;28.80;24.30;;;;;;962807;146;27786;-76
2023/06/04 12:00:56;;;;;;;2.15;1.02;;;28.80;24.40;;;;;;963431;146;27380;-76
2023/06/04 12:03:22;;;;;;;1.00;0.93;;;28.70;24.50;;;;;;963093;145;27331;-76
2023/06/04 12:05:49;;;;;;;1.27;1.17;;;28.70;24.70;;;;;;959378;146;27282;-77
2023/06/04 12:08:15;;;;;;;1.50;1.40;;;28.70;24.80;;;;;;964376;146;27325;-77
2023/06/04 12:10:42;;;;;;;1.37;1.27;;;28.70;24.70;;;;;;963192;146;27332;-76
2023/06/04 12:13:09;;;;;;;1.25;1.10;;;28.70;24.90;;;;;;963993;146;27513;-77
2023/06/04 12:15:35;;;;;;;1.22;0.98;;;28.70;25.10;;;;;;961878;146;27313;-76
2023/06/04 12:18:05;;;;;;;1.12;1.02;;;28.70;25.00;;;;;;960579;145;27400;-76
2023/06/04 12:20:34;;;;;;;1.17;1.17;;;28.60;24.90;;;;;;959206;146;27331;-76
2023/06/04 12:23:00;;;;;;;4.58;1.40;;;28.60;25.00;;;;;;960513;146;27367;-76
2023/06/04 12:25:27;;;;;;;1.22;1.12;;;28.60;24.90;;;;;;961370;146;27293;-76
2023/06/04 12:27:54;;;;;;;1.30;1.20;;;28.60;24.90;;;;;;961229;146;27329;-76
2023/06/04 12:30:20;;;;;;;1.57;1.47;;;28.50;24.90;;;;;;960366;146;27324;-76
2023/06/04 12:32:47;;;;;;;3.47;1.30;;;28.50;25.40;;;;;;960281;146;27348;-76
2023/06/04 12:35:15;;;;;;;1.12;0.90;;;28.50;25.10;;;;;;961004;145;27454;-76
2023/06/04 12:37:40;;;;;;;1.20;1.10;;;28.40;25.00;;;;;;961181;146;27347;-77
2023/06/04 12:40:07;;;;;;;1.32;1.10;;;28.40;25.10;;;;;;960976;146;27397;-77
2023/06/04 12:42:33;;;;;;;2.10;1.20;;;28.40;25.00;;;;;;961904;145;27280;-77
2023/06/04 12:45:00;;;;;;;2.35;1.12;;;28.40;25.10;;;;;;961052;146;27848;-77
2023/06/04 12:47:26;;;;;;;1.60;1.50;;;28.30;24.90;;;;;;963558;146;27371;-76